• Join FlightAware (Why Join?)
  • Login
  • US Flag 
12:47PM EST


 

Airport Tracker/Info


-or-


 

Live Flight TrackerFlight Track Log ✈ CCA1265 ✈ 13-Jul-2014 ✈ ZLXY / XIY - ZWWW / URC

Flight Track Log - Related Links

Times and Time Zones

All times are in EDT time to prevent confusion due to time zone crossing. See the CCA1265 flight status page for this flight to view local times or setup timezone preferences in your user account.

Time Position Orientation Groundspeed Altitude Reporting Facility
EDT Latitude Longitude Course Direction KTS MPH feet Rate Location/Type
12:01AM 34.6176 108.4692 306° West  Level Estimated
12:02AM 34.6743 108.3748 306° West  Level Estimated
12:03AM 34.7309 108.2803 306° West  Level Estimated
12:04AM 34.7874 108.1856 306° West  Level Estimated
12:05AM 34.8439 108.0908 306° West  Level Estimated
12:06AM 34.9003 107.9959 306° West  Level Estimated
12:07AM 34.9566 107.9009 306° West  Level Estimated
12:08AM 35.0128 107.8057 306° West  Level Estimated
12:09AM 35.0690 107.7104 306° West  Level Estimated
12:10AM 35.1251 107.6150 306° West  Level Estimated
12:11AM 35.1811 107.5194 306° West  Level Estimated
12:12AM 35.2370 107.4237 306° West  Level Estimated
12:13AM 35.2929 107.3279 306° West  Level Estimated
12:14AM 35.3487 107.2319 305° West  Level Estimated
12:15AM 35.4044 107.1358 305° West  Level Estimated
12:16AM 35.4600 107.0396 305° West  Level Estimated
12:17AM 35.5156 106.9433 305° West  Level Estimated
12:18AM 35.5711 106.8468 305° West  Level Estimated
12:19AM 35.6265 106.7501 305° West  Level Estimated
12:20AM 35.6818 106.6534 305° West  Level Estimated
12:21AM 35.7371 106.5565 305° West  Level Estimated
12:22AM 35.7922 106.4594 305° West  Level Estimated
12:23AM 35.8473 106.3623 305° West  Level Estimated
12:24AM 35.9024 106.2650 305° West  Level Estimated
12:25AM 35.9573 106.1675 305° West  Level Estimated
12:26AM 36.0121 106.0700 305° West  Level Estimated
12:27AM 36.0669 105.9723 305° West  Level Estimated
12:28AM 36.1216 105.8744 305° West  Level Estimated
12:29AM 36.1763 105.7765 305° West  Level Estimated
12:30AM 36.2308 105.6783 305° West  Level Estimated
12:31AM 36.2853 105.5801 305° West  Level Estimated
12:32AM 36.3396 105.4817 304° West  Level Estimated
12:33AM 36.3939 105.3832 304° West  Level Estimated
12:34AM 36.4482 105.2845 304° West  Level Estimated
12:35AM 36.5023 105.1857 304° West  Level Estimated
12:36AM 36.5564 105.0868 304° West  Level Estimated
12:37AM 36.6103 104.9877 304° West  Level Estimated
12:38AM 36.6642 104.8885 304° West  Level Estimated
12:39AM 36.7180 104.7891 304° West  Level Estimated
12:40AM 36.7718 104.6896 304° West  Level Estimated
12:41AM 36.8254 104.5900 304° West  Level Estimated
12:42AM 36.8790 104.4902 304° West  Level Estimated
12:43AM 36.9324 104.3903 304° West  Level Estimated
12:44AM 36.9858 104.2902 304° West  Level Estimated
12:45AM 37.0391 104.1900 304° West  Level Estimated
12:46AM 37.0924 104.0897 304° West  Level Estimated
12:47AM 37.1455 103.9892 304° West  Level Estimated
12:48AM 37.1986 103.8886 304° West  Level Estimated
12:49AM 37.2515 103.7879 303° West  Level Estimated
12:50AM 37.3044 103.6870 303° West  Level Estimated
12:51AM 37.3572 103.5859 303° West  Level Estimated
12:52AM 37.4099 103.4847 303° West  Level Estimated
12:53AM 37.4626 103.3834 303° West  Level Estimated
12:54AM 37.5151 103.2819 303° West  Level Estimated
12:55AM 37.5676 103.1803 303° West  Level Estimated
12:56AM 37.6199 103.0786 303° West  Level Estimated
12:57AM 37.6722 102.9767 303° West  Level Estimated
12:58AM 37.7244 102.8746 303° West  Level Estimated
12:59AM 37.7765 102.7724 303° West  Level Estimated
01:00AM 37.8285 102.6701 303° West  Level Estimated
01:01AM 37.8804 102.5676 303° West  Level Estimated
01:02AM 37.9323 102.4650 303° West  Level Estimated
01:03AM 37.9840 102.3623 303° West  Level Estimated
01:04AM 38.0357 102.2593 303° West  Level Estimated
01:05AM 38.0872 102.1563 302° West  Level Estimated
01:06AM 38.1387 102.0531 302° West  Level Estimated
01:07AM 38.1901 101.9498 302° West  Level Estimated
01:08AM 38.2414 101.8463 302° West  Level Estimated
01:09AM 38.2926 101.7426 302° West  Level Estimated
01:10AM 38.3437 101.6388 302° West  Level Estimated
01:11AM 38.3947 101.5349 302° West  Level Estimated
01:12AM 38.4457 101.4308 302° West  Level Estimated
01:13AM 38.4965 101.3266 302° West  Level Estimated
01:14AM 38.5473 101.2222 302° West  Level Estimated
01:15AM 38.5979 101.1177 302° West  Level Estimated
01:16AM 38.6485 101.0131 302° West  Level Estimated
01:17AM 38.6989 100.9082 302° West  Level Estimated
01:18AM 38.7493 100.8033 302° West  Level Estimated
01:19AM 38.7996 100.6982 302° West  Level Estimated
01:20AM 38.8498 100.5929 301° West  Level Estimated
01:21AM 38.8999 100.4875 301° West  Level Estimated
01:22AM 38.9499 100.3820 301° West  Level Estimated
01:23AM 38.9998 100.2763 301° West  Level Estimated
01:24AM 39.0496 100.1704 301° West  Level Estimated
01:25AM 39.0993 100.0644 301° West  Level Estimated
01:26AM 39.1489 99.9583 301° West  Level Estimated
01:27AM 39.1984 99.8520 301° West  Level Estimated
01:28AM 39.2478 99.7455 301° West  Level Estimated
01:29AM 39.2972 99.6389 301° West  Level Estimated
01:30AM 39.3464 99.5322 301° West  Level Estimated
01:31AM 39.3955 99.4253 301° West  Level Estimated
01:32AM 39.4445 99.3182 301° West  Level Estimated
01:33AM 39.4935 99.2110 301° West  Level Estimated
01:34AM 39.5423 99.1037 301° West  Level Estimated
01:35AM 39.5910 98.9961 300° West  Level Estimated
01:36AM 39.6397 98.8885 300° West  Level Estimated
01:37AM 39.6882 98.7807 300° West  Level Estimated
01:38AM 39.7366 98.6727 300° West  Level Estimated
01:39AM 39.7850 98.5646 300° West  Level Estimated
01:40AM 39.8332 98.4564 300° West  Level Estimated
01:41AM 39.8814 98.3480 300° West  Level Estimated
01:42AM 39.9294 98.2394 300° West  Level Estimated
01:43AM 39.9773 98.1307 300° West  Level Estimated
01:44AM 40.0252 98.0218 300° West  Level Estimated
01:45AM 40.0729 97.9128 300° West  Level Estimated
01:46AM 40.1205 97.8036 300° West  Level Estimated
01:47AM 40.1680 97.6943 300° West  Level Estimated
01:48AM 40.2155 97.5848 300° West  Level Estimated
01:49AM 40.2628 97.4752 300° West  Level Estimated
01:50AM 40.3100 97.3654 299° West  Level Estimated
01:51AM 40.3571 97.2554 299° West  Level Estimated
01:52AM 40.4041 97.1453 299° West  Level Estimated
01:53AM 40.4510 97.0351 299° West  Level Estimated
01:54AM 40.4978 96.9247 299° West  Level Estimated
01:55AM 40.5445 96.8141 299° West  Level Estimated
01:56AM 40.5911 96.7034 299° West  Level Estimated
01:57AM 40.6375 96.5926 299° West  Level Estimated
01:58AM 40.6839 96.4815 299° West  Level Estimated
01:59AM 40.7302 96.3704 299° West  Level Estimated
02:00AM 40.7763 96.2590 299° West  Level Estimated
02:01AM 40.8224 96.1476 299° West  Level Estimated
02:02AM 40.8683 96.0359 299° West  Level Estimated
02:03AM 40.9142 95.9241 299° West  Level Estimated
02:04AM 40.9599 95.8122 298° West  Level Estimated
02:05AM 41.0055 95.7001 298° West  Level Estimated
02:06AM 41.0510 95.5878 298° West  Level Estimated
02:07AM 41.0964 95.4754 298° West  Level Estimated
02:08AM 41.1417 95.3628 298° West  Level Estimated
02:09AM 41.1869 95.2501 298° West  Level Estimated
02:10AM 41.2320 95.1372 298° West  Level Estimated
02:11AM 41.2770 95.0242 298° West  Level Estimated
02:12AM 41.3218 94.9110 298° West  Level Estimated
02:13AM 41.3666 94.7977 298° West  Level Estimated
02:14AM 41.4112 94.6842 298° West  Level Estimated
02:15AM 41.4557 94.5705 298° West  Level Estimated
02:16AM 41.5001 94.4567 298° West  Level Estimated
02:17AM 41.5444 94.3427 297° West  Level Estimated
02:18AM 41.5886 94.2286 297° West  Level Estimated
02:19AM 41.6326 94.1143 297° West  Level Estimated
02:20AM 41.6766 93.9999 297° West  Level Estimated
02:21AM 41.7205 93.8853 297° West  Level Estimated
02:22AM 41.7642 93.7706 297° West  Level Estimated
02:23AM 41.8078 93.6556 297° West  Level Estimated
02:24AM 41.8513 93.5406 297° West  Level Estimated
02:25AM 41.8947 93.4254 297° West  Level Estimated
02:26AM 41.9379 93.3100 297° West  Level Estimated
02:27AM 41.9811 93.1945 297° West  Level Estimated
02:28AM 42.0241 93.0788 297° West  Level Estimated
02:29AM 42.0671 92.9629 297° West  Level Estimated
02:30AM 42.1099 92.8469 296° West  Level Estimated
02:31AM 42.1525 92.7308 296° West  Level Estimated
02:32AM 42.1951 92.6144 296° West  Level Estimated
02:33AM 42.2376 92.4980 296° West  Level Estimated
02:34AM 42.2799 92.3813 296° West  Level Estimated
02:35AM 42.3221 92.2646 296° West  Level Estimated
02:36AM 42.3642 92.1476 296° West  Level Estimated
02:37AM 42.4062 92.0305 296° West  Level Estimated
02:38AM 42.4480 91.9133 296° West  Level Estimated
02:39AM 42.4898 91.7959 296° West  Level Estimated
02:40AM 42.5314 91.6783 296° West  Level Estimated
02:41AM 42.5729 91.5606 296° West  Level Estimated
02:42AM 42.6143 91.4427 296° West  Level Estimated
02:43AM 42.6555 91.3247 295° West  Level Estimated
02:44AM 42.6967 91.2065 295° West  Level Estimated
02:45AM 42.7377 91.0881 295° West  Level Estimated
02:46AM 42.7786 90.9696 295° West  Level Estimated
02:47AM 42.8193 90.8510 295° West  Level Estimated
02:48AM 42.8600 90.7321 295° West  Level Estimated
02:49AM 42.9005 90.6132 295° West  Level Estimated
02:50AM 42.9409 90.4940 295° West  Level Estimated
02:51AM 42.9812 90.3747 295° West  Level Estimated
02:52AM 43.0213 90.2553 295° West  Level Estimated
02:53AM 43.0614 90.1357 295° West  Level Estimated
02:54AM 43.1013 90.0159 295° West  Level Estimated
02:55AM 43.1410 89.8960 294° West  Level Estimated
02:56AM 43.1807 89.7760 294° West  Level Estimated
02:57AM 43.2202 89.6557 294° West  Level Estimated
02:58AM 43.2596 89.5354 294° West  Level Estimated
02:59AM 43.2989 89.4148 294° West  Level Estimated
03:00AM 43.3381 89.2941 294° West  Level Estimated
03:01AM 43.3771 89.1733 294° West  Level Estimated
03:02AM 43.4160 89.0523 294° West  Level Estimated
03:03AM 43.4547 88.9311 294° West  Level Estimated
03:04AM 43.4934 88.8098 294° West  Level Estimated
03:05AM 43.5319 88.6883 294° West  Level Estimated
03:06AM 43.5703 88.5667 294° West  Level Estimated
03:07AM 43.6085 88.4449 293° West  Level Estimated
03:08AM 43.6466 88.3230 293° West  Level Estimated
03:09AM 43.6846 88.2009 293° West  Level Estimated
03:10AM 43.7225 88.0787 293° West  Level Estimated
03:11AM 43.7602 87.9563 293° West  Level Estimated
03:12AM 43.7978 87.8337 293° West  Level Estimated
03:13AM 43.8353 87.7111 293° West  Level Estimated
03:14AM 43.8726 87.5882 293° West  Level Estimated
03:15AM 43.9071 87.4742 293° West  Level Estimated
03:16AM 43.9071 87.4742 North  Level Estimated
03:17AM 43.9071 87.4742 North  Level Estimated
03:18AM 43.9071 87.4742 North  Level Estimated
03:19AM 43.9071 87.4742 North  Level Estimated
03:20AM 43.9071 87.4742 North  Level Estimated
03:21AM 43.9071 87.4742 North  Level Estimated
03:22AM 43.9071 87.4742 North  Level Estimated
03:23AM 43.9071 87.4742 North  Level Estimated
03:24AM 43.9071 87.4742 North  Level Estimated
03:25AM 43.9071 87.4742 North  Level Estimated